Погода Кантагалуна 2 недели

Рио-де-Жанейро, Бразилия

19 - 31 мая
  • 19мая
    Сегодня
    +16°
    +27°
    Ясно и безоблачно
    ВремяПогодаТемператураВлажностьДавлениеВетер, м/сВероятность осадков
    00:00Ясно и безоблачно+20°C78 %714 мм1.3 м/с5 %
    03:00Практически безоблачно+18°C82 %713 мм1.8 м/с5 %
    06:00Ясно и безоблачно+17°C77 %713 мм1.4 м/с5 %
    09:00Ясно и безоблачно+24°C62 %715 мм0.3 м/с5 %
    12:00Практически безоблачно+27°C53 %715 мм2.2 м/с2 %
    15:00Ясно и безоблачно+27°C47 %714 мм0.9 м/с10 %
    18:00Ясно и безоблачно+24°C59 %714 мм0.1 м/с15 %
    21:00Ясно и безоблачно+19°C81 %714 мм1.3 м/с9 %
  • 20мая
    Понедельник
    +18°
    +27°
    Ясно и безоблачно
    ВремяПогодаТемператураВлажностьДавлениеВетер, м/сВероятность осадков
    00:00Ясно и безоблачно+18°C88 %714 мм0.7 м/с5 %
    03:00Ясно и безоблачно+17°C89 %713 мм1.3 м/с4 %
    06:00Ясно и безоблачно+17°C89 %713 мм1.4 м/с3 %
    09:00Практически безоблачно+23°C69 %716 мм0.6 м/с3 %
    12:00Ясно и безоблачно+26°C57 %715 мм1.9 м/с2 %
    15:00Ясно и безоблачно+27°C54 %714 мм1.1 м/с5 %
    18:00Ясно и безоблачно+23°C67 %714 мм0.9 м/с10 %
    21:00Ясно и безоблачно+21°C88 %715 мм1.2 м/с5 %
  • 21мая
    Вторник
    +17°
    +27°
    Небольшая облачность
    ВремяПогодаТемператураВлажностьДавлениеВетер, м/сВероятность осадков
    00:00Практически безоблачно+20°C97 %716 мм1.1 м/с4 %
    03:00Ясно и безоблачно+19°C97 %715 мм0.8 м/с4 %
    06:00Ясно и безоблачно+18°C97 %715 мм0.7 м/с3 %
    09:00Небольшая облачность+23°C77 %717 мм1.1 м/с6 %
    12:00Практически безоблачно+26°C62 %717 мм2.0 м/с12 %
    15:00Небольшая облачность+27°C55 %716 мм2.4 м/с7 %
    18:00Ясно и безоблачно+23°C75 %716 мм1.7 м/с5 %
    21:00Практически безоблачно+20°C91 %717 мм0.9 м/с5 %
  • 22мая
    Среда
    +17°
    +26°
    Небольшая облачность
    ВремяПогодаТемператураВлажностьДавлениеВетер, м/сВероятность осадков
    00:00Практически безоблачно+20°C90 %717 мм0.8 м/с5 %
    03:00Практически безоблачно+19°C95 %716 мм0.8 м/с4 %
    06:00Ясно и безоблачно+18°C93 %716 мм1.2 м/с5 %
    09:00Облачно с прояснениями+23°C74 %718 мм2.7 м/с8 %
    12:00Облачно с прояснениями+25°C68 %717 мм3.0 м/с10 %
    15:00Небольшая облачность+25°C67 %716 мм2.5 м/с22 %
    18:00Ясно и безоблачно+23°C79 %715 мм0.6 м/с16 %
    21:00Ясно и безоблачно+20°C92 %716 мм1.7 м/с7 %
Мы используем cookies
Соглашаюсь